Hauptseite
METAR-TAF:

METAR-TAF

Flughäfen :

Flughafen Rankin Inlet

Rankin Inlet, Nunavut, Kanada

Breite: 62-49N, Länge: 092-07W, Höhe: 31 m

Beobachtung

Neuester Wetterbericht von vor 28 Minuten, um 16:00 UTC
Wind 19 kt aus Nord/Nordwest
Temperatur -31°C
Luftfeuchtigkeit 68%
Luftdruck 1035 hPa
Sichtweite: 4.8 km
Himmel klar
Eisnadeln, Schneetreiben

METAR: CYRT 251600Z 34019KT 3SM IC BLSN SKC M31/M35 A3057 RMK SLP358

Zeit: 10:28 (16:28 UTC)

Prognose

Neuester Wetterbericht von vor 4 Stunden und 50 Minuten, um 11:38 UTC
Gültige Prognose vom 25 um 12 UTC bis 25 um 24 UTC
Wind 15 kt aus Nord/Nordwest
Sichtweite: 9.7 km
Himmel klar
Eisnadeln
Zeitweise
vom 25 um 12 UTC bis 25 um 24 UTC
Himmel klar
Eisnadeln, Schneetreiben

TAF: CYRT 251138Z 2512/2524 34015KT 6SM IC SKC TEMPO 2512/2524 21/2SM IC BLSN SKC RMK NXT FCST BY 251800Z

Wetterbeobachtungen und Prognosen von mehr als 4000 Flughäfen (METAR und TAF Bericht).

Die verfügbaren Stationen werden durch gelbe und rote Markierungen auf der Karte dargestellt.

Führen Sie die Maus auf sie, um den Namen der Station zu sehen.

Darauf klicken, um die Beobachtung von Wetterbeobachtungen und Prognosen zu sehen.

Um die Karte zu ändern : klicken Sie auf den grünen Tasten mit einem schwarzen Kreuz Zum Vergrößern, auf den grünen Button mit einem Gedankenstrich zu verkleinern, oder auf die grünen Pfeile für benachbarte Karten.


METAR-TAF: